El Portal, Florida
Current Conditions -  °F | °C
As of 12:53 PM on Tuesday 21 Oct 2014 (Local Time) from KMIA Reporting Station
Light Rain Light Rain  
Wind Chill: 78°   Ceiling: 3500
Heat Index: 81°   Visibility: 10mi
Dew Point: 74°   Wind: 6mph
Humidity: 87%   Direction: NA
Pressure: 29.97"   Gusts: NA
Location:  25.852°N, 80.2071°W
Report Text: KMIA 211653Z VRB05KT 10SM -RA FEW020 BKN035 OVC140 26/23 A2997 RMK AO2 SLP147 P0000 T02560233
Loading
Personal Weather Stations






























Interactive Weather Map
Tropical Storm Tracking
New forecast layout! Learn more

10-Day Weather Forecast

Advertisements
Track Severe Weather on mobile